createdAt,value
2023-02-04T00:01:49.544Z,98106.59
2023-02-04T00:04:54.042Z,98102.73
2023-02-04T00:07:58.608Z,98102.05
2023-02-04T00:11:03.104Z,98104.24
2023-02-04T00:14:08.077Z,98100.71
2023-02-04T00:17:13.117Z,98095.74
2023-02-04T00:20:19.697Z,98088.70
2023-02-04T00:23:24.197Z,98080.60
2023-02-04T00:26:28.746Z,98073.14
2023-02-04T00:29:33.329Z,98074.48
2023-02-04T00:32:37.920Z,98077.00
2023-02-04T00:35:42.600Z,98075.88
2023-02-04T00:38:47.034Z,98070.48
2023-02-04T00:41:51.503Z,98073.73
2023-02-04T00:44:56.074Z,98072.05
2023-02-04T00:48:00.599Z,98067.25
2023-02-04T00:51:05.248Z,98062.46
2023-02-04T00:54:09.777Z,98062.81
2023-02-04T00:57:14.251Z,98066.54
2023-02-04T01:00:19.233Z,98064.19
2023-02-04T01:03:23.747Z,98060.45
2023-02-04T01:06:28.367Z,98065.05
2023-02-04T01:09:32.917Z,98063.17
2023-02-04T01:12:37.442Z,98062.77
2023-02-04T01:15:42.066Z,98054.34
2023-02-04T01:18:46.548Z,98049.65
2023-02-04T01:21:51.202Z,98045.58
2023-02-04T01:24:55.695Z,98038.73
2023-02-04T01:28:00.298Z,98033.05
2023-02-04T01:31:04.994Z,98027.86
2023-02-04T01:34:09.610Z,98027.36
2023-02-04T01:37:14.100Z,98027.17
2023-02-04T01:40:18.898Z,98025.02
2023-02-04T01:43:23.761Z,98019.50
2023-02-04T01:46:28.232Z,98015.09
2023-02-04T01:49:32.954Z,98013.11
2023-02-04T01:52:40.293Z,98006.59
2023-02-04T01:55:44.813Z,98002.17
2023-02-04T01:58:49.860Z,97997.41
2023-02-04T02:01:54.429Z,97996.77
2023-02-04T02:04:58.957Z,97999.87
2023-02-04T02:08:04.372Z,97993.70
2023-02-04T02:11:08.930Z,97994.19
2023-02-04T02:14:13.857Z,97999.87
2023-02-04T02:17:18.415Z,97997.18
2023-02-04T02:20:24.246Z,98006.63
2023-02-04T02:23:34.125Z,98008.02
2023-02-04T02:26:38.748Z,98010.21
2023-02-04T02:29:43.774Z,98012.79
2023-02-04T02:32:49.102Z,98012.08
2023-02-04T02:35:53.733Z,98012.58
2023-02-04T02:39:00.164Z,98013.23
2023-02-04T02:42:05.036Z,98012.47
2023-02-04T02:45:14.988Z,98017.00
2023-02-04T02:48:19.526Z,98025.75
2023-02-04T02:51:24.164Z,98030.05
2023-02-04T02:54:29.977Z,98034.73
2023-02-04T02:57:34.493Z,98040.46
2023-02-04T03:00:39.027Z,98052.18
2023-02-04T03:03:44.780Z,98065.41
2023-02-04T03:06:49.875Z,98057.40
2023-02-04T03:09:54.570Z,98058.34
2023-02-04T03:12:59.516Z,98052.12
2023-02-04T03:16:04.546Z,98053.05
2023-02-04T03:19:09.526Z,98055.25
2023-02-04T03:22:14.052Z,98052.59
2023-02-04T03:25:18.876Z,98055.75
2023-02-04T03:28:23.336Z,98051.52
2023-02-04T03:31:27.978Z,98061.63
2023-02-04T03:34:32.630Z,98072.20
2023-02-04T03:37:37.252Z,98075.90
2023-02-04T03:40:41.804Z,98080.46
2023-02-04T03:43:46.298Z,98082.52
2023-02-04T03:46:55.529Z,98089.84
2023-02-04T03:50:00.261Z,98095.55
2023-02-04T03:53:04.812Z,98104.02
2023-02-04T03:56:10.490Z,98109.05
2023-02-04T03:59:14.976Z,98113.10
2023-02-04T04:02:19.512Z,98120.99
2023-02-04T04:05:23.969Z,98127.90
2023-02-04T04:08:28.413Z,98138.30
2023-02-04T04:11:32.943Z,98148.15
2023-02-04T04:14:37.859Z,98155.85
2023-02-04T04:17:42.349Z,98163.31
2023-02-04T04:20:46.810Z,98171.88
2023-02-04T04:23:51.361Z,98178.02
2023-02-04T04:26:55.863Z,98188.95
2023-02-04T04:30:00.415Z,98196.36
2023-02-04T04:33:05.027Z,98203.46
2023-02-04T04:36:09.993Z,98210.68
2023-02-04T04:39:14.597Z,98224.23
2023-02-04T04:42:19.083Z,98233.85
2023-02-04T04:45:23.532Z,98242.29
2023-02-04T04:48:28.321Z,98252.79
2023-02-04T04:51:33.079Z,98264.52
2023-02-04T04:54:37.643Z,98275.09
2023-02-04T04:57:42.135Z,98289.17
2023-02-04T05:00:46.682Z,98303.33
2023-02-04T05:03:51.317Z,98324.32
2023-02-04T05:06:55.821Z,98347.03
2023-02-04T05:10:00.426Z,98370.16
2023-02-04T05:13:04.926Z,98391.80
2023-02-04T05:16:12.087Z,98415.50
2023-02-04T05:19:16.635Z,98445.45
2023-02-04T05:22:21.106Z,98457.74
2023-02-04T05:25:25.720Z,98481.25
2023-02-04T05:28:30.281Z,98505.32
2023-02-04T05:31:34.788Z,98524.85
2023-02-04T05:34:40.073Z,98555.01
2023-02-04T05:37:44.564Z,98565.81
2023-02-04T05:40:49.135Z,98580.65
2023-02-04T05:43:53.668Z,98599.67
2023-02-04T05:46:58.362Z,98622.08
2023-02-04T05:50:02.971Z,98643.63
2023-02-04T05:53:07.524Z,98659.04
2023-02-04T05:56:12.113Z,98675.27
2023-02-04T05:59:16.681Z,98703.58
2023-02-04T06:02:21.221Z,98723.34
2023-02-04T06:05:25.699Z,98746.02
2023-02-04T06:08:30.240Z,98765.30
2023-02-04T06:11:34.868Z,98787.25
2023-02-04T06:14:39.496Z,98807.83
2023-02-04T06:17:44.029Z,98824.23
2023-02-04T06:20:48.618Z,98845.45
2023-02-04T06:23:53.182Z,98859.66
2023-02-04T06:26:58.024Z,98877.46
2023-02-04T06:30:02.494Z,98889.77
2023-02-04T06:33:07.040Z,98912.20
2023-02-04T06:36:11.545Z,98933.49
2023-02-04T06:39:16.012Z,98947.16
2023-02-04T06:42:20.553Z,98961.67
2023-02-04T06:45:25.019Z,98978.30
2023-02-04T06:48:31.124Z,98999.91
2023-02-04T06:51:35.827Z,99009.17
2023-02-04T06:54:40.341Z,99024.91
2023-02-04T06:57:45.102Z,99049.40
2023-02-04T07:00:49.637Z,99069.62
2023-02-04T07:03:54.183Z,99091.02
2023-02-04T07:06:58.786Z,99108.89
2023-02-04T07:10:03.275Z,99126.33
2023-02-04T07:13:07.718Z,99142.42
2023-02-04T07:16:12.347Z,99157.95
2023-02-04T07:19:16.992Z,99171.58
2023-02-04T07:22:21.514Z,99190.41
2023-02-04T07:25:26.066Z,99206.09
2023-02-04T07:28:31.617Z,99222.13
2023-02-04T07:31:36.210Z,99238.23
2023-02-04T07:34:40.769Z,99257.81
2023-02-04T07:37:45.246Z,99272.10
2023-02-04T07:40:49.994Z,99279.25
2023-02-04T07:43:54.492Z,99293.94
2023-02-04T07:46:59.039Z,99318.55
2023-02-04T07:50:03.601Z,99330.45
2023-02-04T07:53:08.080Z,99341.11
2023-02-04T07:56:12.608Z,99357.64
2023-02-04T07:59:17.129Z,99372.05
2023-02-04T08:02:21.704Z,99384.73
2023-02-04T08:05:26.325Z,99391.30
2023-02-04T08:08:30.842Z,99406.42
2023-02-04T08:11:35.400Z,99421.95
2023-02-04T08:14:39.847Z,99423.98
2023-02-04T08:17:44.486Z,99435.09
2023-02-04T08:20:49.049Z,99448.88
2023-02-04T08:23:53.644Z,99453.91
2023-02-04T08:26:58.401Z,99469.67
2023-02-04T08:30:02.947Z,99479.30
2023-02-04T08:33:07.629Z,99488.62
2023-02-04T08:36:12.188Z,99494.09
2023-02-04T08:39:16.629Z,99505.89
2023-02-04T08:42:21.324Z,99515.33
2023-02-04T08:45:25.870Z,99514.69
2023-02-04T08:48:30.330Z,99528.00
2023-02-04T08:51:35.014Z,99528.75
2023-02-04T08:54:39.494Z,99531.29
2023-02-04T08:57:44.040Z,99541.16
2023-02-04T09:00:48.657Z,99549.23
2023-02-04T09:03:53.324Z,99558.98
2023-02-04T09:06:57.865Z,99565.69
2023-02-04T09:10:02.320Z,99579.54
2023-02-04T09:13:09.260Z,99587.86
2023-02-04T09:16:14.524Z,99593.27
2023-02-04T09:19:24.146Z,99609.27
2023-02-04T09:22:28.696Z,99620.77
2023-02-04T09:25:33.216Z,99629.48
2023-02-04T09:28:37.813Z,99633.04
2023-02-04T09:31:42.419Z,99644.25
2023-02-04T09:34:46.980Z,99658.25
2023-02-04T09:37:51.527Z,99660.68
2023-02-04T09:40:58.800Z,99668.40
2023-02-04T09:44:03.476Z,99679.04
2023-02-04T09:47:07.970Z,99681.17
2023-02-04T09:50:15.499Z,99687.30
2023-02-04T09:53:21.385Z,99688.80
2023-02-04T09:56:26.351Z,99697.44
2023-02-04T09:59:30.852Z,99707.28
2023-02-04T10:02:36.383Z,99711.73
2023-02-04T10:05:40.872Z,99712.90
2023-02-04T10:08:46.129Z,99717.69
2023-02-04T10:11:50.814Z,99726.40
2023-02-04T10:14:55.417Z,99733.59
2023-02-04T10:18:02.987Z,99734.77
2023-02-04T10:21:14.314Z,99737.65
2023-02-04T10:24:20.026Z,99742.09
2023-02-04T10:27:24.605Z,99741.42
2023-02-04T10:30:30.271Z,99742.06
2023-02-04T10:33:37.091Z,99745.45
2023-02-04T10:36:43.424Z,99748.45
2023-02-04T10:39:48.990Z,99752.55
2023-02-04T10:42:53.539Z,99750.48
2023-02-04T10:45:59.469Z,99753.44
2023-02-04T10:49:04.950Z,99749.37
2023-02-04T10:52:15.192Z,99748.77
2023-02-04T10:55:21.094Z,99753.60
2023-02-04T10:58:28.048Z,99755.08
2023-02-04T11:01:32.980Z,99762.13
2023-02-04T11:04:37.533Z,99770.23
2023-02-04T11:07:42.243Z,99775.61
2023-02-04T11:10:46.883Z,99775.22
2023-02-04T11:14:00.888Z,99787.38
2023-02-04T11:17:05.513Z,99790.33
2023-02-04T11:20:31.991Z,99792.09
2023-02-04T11:23:39.721Z,99797.55
2023-02-04T11:26:44.855Z,99796.69
2023-02-04T11:29:49.381Z,99804.71
2023-02-04T11:33:03.236Z,99801.19
2023-02-04T11:36:09.718Z,99797.55
2023-02-04T11:39:18.144Z,99802.59
2023-02-04T11:42:23.522Z,99810.32
2023-02-04T11:45:28.978Z,99808.55
2023-02-04T11:48:33.616Z,99813.65
2023-02-04T11:51:38.122Z,99818.45
2023-02-04T11:54:42.686Z,99820.69
2023-02-04T11:57:47.744Z,99822.53
2023-02-04T12:00:52.235Z,99823.45
2023-02-04T12:04:00.047Z,99819.73
2023-02-04T12:07:05.692Z,99819.27
2023-02-04T12:10:26.239Z,99823.40
2023-02-04T12:13:31.169Z,99839.03
2023-02-04T12:16:43.078Z,99848.61
2023-02-04T12:19:47.729Z,99848.52
2023-02-04T12:22:52.278Z,99853.04
2023-02-04T12:25:56.988Z,99851.52
2023-02-04T12:29:03.459Z,99866.10
2023-02-04T12:32:08.024Z,99872.15
2023-02-04T12:35:12.609Z,99869.62
2023-02-04T12:38:18.038Z,99879.77
2023-02-04T12:41:23.270Z,99885.08
2023-02-04T12:44:27.803Z,99895.30
2023-02-04T12:47:32.366Z,99902.23
2023-02-04T12:50:36.869Z,99908.02
2023-02-04T12:53:41.377Z,99916.58
2023-02-04T12:56:45.902Z,99919.42
2023-02-04T12:59:50.616Z,99922.14
2023-02-04T13:02:56.154Z,99919.82
2023-02-04T13:06:00.557Z,99926.38
2023-02-04T13:09:05.125Z,99939.70
2023-02-04T13:12:09.709Z,99943.52
2023-02-04T13:15:14.458Z,99948.27
2023-02-04T13:18:19.780Z,99955.81
2023-02-04T13:21:24.240Z,99954.55
2023-02-04T13:24:29.113Z,99952.50
2023-02-04T13:27:33.615Z,99960.13
2023-02-04T13:30:38.186Z,99965.41
2023-02-04T13:33:42.659Z,99969.54
2023-02-04T13:36:47.164Z,99971.30
2023-02-04T13:39:51.612Z,99977.27
2023-02-04T13:42:56.268Z,99977.36
2023-02-04T13:46:02.974Z,99983.98
2023-02-04T13:49:07.562Z,99986.34
2023-02-04T13:52:12.193Z,99988.93
2023-02-04T13:55:16.924Z,99995.48
2023-02-04T13:58:21.450Z,100004.63
2023-02-04T14:01:26.092Z,100014.46
2023-02-04T14:04:30.590Z,100014.59
2023-02-04T14:07:35.295Z,100019.33
2023-02-04T14:10:39.731Z,100018.89
2023-02-04T14:13:44.301Z,100027.29
2023-02-04T14:16:48.793Z,100028.84
2023-02-04T14:19:53.344Z,100031.82
2023-02-04T14:22:57.831Z,100032.90
2023-02-04T14:26:02.480Z,100032.24
2023-02-04T14:29:07.229Z,100036.29
2023-02-04T14:32:11.691Z,100039.05
2023-02-04T14:35:16.668Z,100047.94
2023-02-04T14:38:21.295Z,100050.59
2023-02-04T14:41:26.509Z,100056.96
2023-02-04T14:44:31.045Z,100054.31
2023-02-04T14:47:35.661Z,100053.61
2023-02-04T14:50:40.322Z,100055.02
2023-02-04T14:53:48.274Z,100052.56
2023-02-04T14:56:53.331Z,100056.04
2023-02-04T14:59:57.999Z,100060.06
2023-02-04T15:03:02.621Z,100058.70
2023-02-04T15:06:07.800Z,100061.75
2023-02-04T15:09:12.331Z,100065.94
2023-02-04T15:12:16.816Z,100066.56
2023-02-04T15:15:21.480Z,100070.54
2023-02-04T15:18:25.963Z,100073.95
2023-02-04T15:21:30.510Z,100079.03
2023-02-04T15:24:35.116Z,100089.16
2023-02-04T15:27:39.690Z,100091.49
2023-02-04T15:30:44.292Z,100095.14
2023-02-04T15:33:49.030Z,100103.61
2023-02-04T15:36:53.542Z,100109.45
2023-02-04T15:39:58.073Z,100112.94
2023-02-04T15:43:02.542Z,100119.30
2023-02-04T15:46:07.142Z,100123.13
2023-02-04T15:49:12.014Z,100125.39
2023-02-04T15:52:24.649Z,100131.20
2023-02-04T15:55:30.075Z,100137.11
2023-02-04T15:58:34.724Z,100145.04
2023-02-04T16:01:39.313Z,100152.80
2023-02-04T16:04:45.478Z,100153.38
2023-02-04T16:07:50.265Z,100156.23
2023-02-04T16:10:55.323Z,100151.83
2023-02-04T16:14:00.166Z,100155.02
2023-02-04T16:17:06.964Z,100162.45
2023-02-04T16:20:12.548Z,100164.38
2023-02-04T16:23:17.117Z,100168.94
2023-02-04T16:26:21.578Z,100168.67
2023-02-04T16:29:26.984Z,100167.70
2023-02-04T16:32:33.648Z,100167.59
2023-02-04T16:35:56.439Z,100165.66
2023-02-04T16:39:02.867Z,100172.34
2023-02-04T16:42:09.001Z,100170.09
2023-02-04T16:45:13.671Z,100175.89
2023-02-04T16:48:18.474Z,100175.67
2023-02-04T16:51:23.062Z,100177.71
2023-02-04T16:54:27.605Z,100181.80
2023-02-04T16:57:32.137Z,100184.33
2023-02-04T17:00:38.827Z,100186.86
2023-02-04T17:03:43.301Z,100189.73
2023-02-04T17:06:47.810Z,100190.34
2023-02-04T17:09:52.275Z,100197.14
2023-02-04T17:12:57.369Z,100199.09
2023-02-04T17:16:01.965Z,100205.17
2023-02-04T17:19:06.795Z,100201.52
2023-02-04T17:22:11.292Z,100196.59
2023-02-04T17:25:15.913Z,100199.39
2023-02-04T17:28:20.509Z,100200.38
2023-02-04T17:31:25.003Z,100195.96
2023-02-04T17:34:29.849Z,100194.32
2023-02-04T17:37:34.356Z,100195.75
2023-02-04T17:40:38.849Z,100194.55
2023-02-04T17:43:43.504Z,100193.43
2023-02-04T17:46:48.282Z,100195.63
2023-02-04T17:49:52.788Z,100202.47
2023-02-04T17:52:58.063Z,100205.52
2023-02-04T17:56:02.669Z,100205.67
2023-02-04T17:59:10.570Z,100207.73
2023-02-04T18:02:20.038Z,100208.89
2023-02-04T18:05:27.093Z,100208.02
2023-02-04T18:08:37.483Z,100206.88
2023-02-04T18:11:41.969Z,100202.02
2023-02-04T18:14:46.965Z,100203.80
2023-02-04T18:17:52.980Z,100199.00
2023-02-04T18:21:01.406Z,100193.23
2023-02-04T18:24:08.337Z,100196.30
2023-02-04T18:27:17.061Z,100196.36
2023-02-04T18:30:22.528Z,100196.99
2023-02-04T18:33:28.189Z,100201.23
2023-02-04T18:36:34.008Z,100198.84
2023-02-04T18:39:38.517Z,100205.64
2023-02-04T18:42:43.690Z,100212.98
2023-02-04T18:45:48.327Z,100219.61
2023-02-04T18:48:59.990Z,100227.02
2023-02-04T18:52:15.138Z,100228.06
2023-02-04T18:55:27.983Z,100231.73
2023-02-04T18:58:36.003Z,100227.54
2023-02-04T19:01:40.858Z,100221.46
2023-02-04T19:04:45.960Z,100218.05
2023-02-04T19:07:51.352Z,100228.43
2023-02-04T19:10:56.488Z,100228.18
2023-02-04T19:14:01.379Z,100227.41
2023-02-04T19:17:22.090Z,100232.62
2023-02-04T19:20:26.950Z,100239.03
2023-02-04T19:23:37.378Z,100239.73
2023-02-04T19:26:43.326Z,100240.83
2023-02-04T19:29:49.823Z,100240.02
2023-02-04T19:32:55.989Z,100241.77
2023-02-04T19:36:01.817Z,100242.95
2023-02-04T19:39:08.743Z,100242.96
2023-02-04T19:42:24.568Z,100247.99
2023-02-04T19:45:29.249Z,100250.05
2023-02-04T19:48:36.862Z,100252.00
2023-02-04T19:51:41.667Z,100259.22
2023-02-04T19:54:45.993Z,100267.56
2023-02-04T19:59:33.921Z,100277.92
2023-02-04T20:02:42.293Z,100291.36
2023-02-04T20:12:05.876Z,100313.86
2023-02-04T20:15:20.673Z,100321.66
2023-02-04T20:18:29.166Z,100319.84
2023-02-04T20:21:35.440Z,100319.45
2023-02-04T20:24:42.070Z,100324.37
2023-02-04T20:27:52.348Z,100329.42
2023-02-04T20:31:01.820Z,100337.77
2023-02-04T20:34:18.841Z,100339.01
2023-02-04T20:37:27.827Z,100335.94
2023-02-04T20:40:37.175Z,100334.86
2023-02-04T20:43:44.427Z,100335.17
2023-02-04T20:46:50.841Z,100329.43
2023-02-04T20:49:58.861Z,100324.73
2023-02-04T20:53:17.907Z,100326.08
2023-02-04T20:56:28.342Z,100332.66
2023-02-04T20:59:36.566Z,100331.59
2023-02-04T21:02:42.771Z,100335.90
2023-02-04T21:05:50.336Z,100335.23
2023-02-04T21:08:58.501Z,100335.61
2023-02-04T21:12:06.053Z,100343.11
2023-02-04T21:15:13.254Z,100348.25
2023-02-04T21:18:19.982Z,100355.89
2023-02-04T21:21:27.536Z,100356.34
2023-02-04T21:24:34.949Z,100357.14
2023-02-04T21:27:41.293Z,100363.17
2023-02-04T21:30:45.839Z,100364.42
2023-02-04T21:33:51.952Z,100366.49
2023-02-04T21:36:58.230Z,100367.16
2023-02-04T21:40:02.649Z,100372.63
2023-02-04T21:43:08.884Z,100376.31
2023-02-04T21:46:15.590Z,100374.82
2023-02-04T21:49:21.796Z,100379.98
2023-02-04T21:52:28.097Z,100379.20
2023-02-04T21:55:32.783Z,100378.06
2023-02-04T21:58:39.713Z,100377.45
2023-02-04T22:01:45.831Z,100380.93
2023-02-04T22:04:52.431Z,100379.59
2023-02-04T22:07:59.886Z,100376.79
2023-02-04T22:11:06.350Z,100382.81
2023-02-04T22:14:10.965Z,100390.16
2023-02-04T22:17:17.218Z,100393.20
2023-02-04T22:20:22.328Z,100399.23
2023-02-04T22:23:28.754Z,100404.34
2023-02-04T22:26:35.030Z,100404.77
2023-02-04T22:29:39.344Z,100409.61
2023-02-04T22:32:46.153Z,100411.00
2023-02-04T22:35:52.364Z,100414.58
2023-02-04T22:38:58.653Z,100420.55
2023-02-04T22:42:03.191Z,100419.13
2023-02-04T22:45:11.477Z,100420.96
2023-02-04T22:48:17.704Z,100417.71
2023-02-04T22:51:24.340Z,100422.37
2023-02-04T22:54:30.472Z,100426.80
2023-02-04T22:57:36.765Z,100425.54
2023-02-04T23:00:41.934Z,100429.59
2023-02-04T23:03:48.970Z,100438.23
2023-02-04T23:06:55.782Z,100443.63
2023-02-04T23:10:02.328Z,100446.80
2023-02-04T23:13:08.713Z,100449.45
2023-02-04T23:16:15.015Z,100450.73
2023-02-04T23:19:19.540Z,100452.17
2023-02-04T23:22:25.825Z,100451.20
2023-02-04T23:25:30.633Z,100457.96
2023-02-04T23:28:37.142Z,100462.52
2023-02-04T23:31:43.181Z,100465.73
2023-02-04T23:34:49.473Z,100467.73
2023-02-04T23:37:53.780Z,100468.96
2023-02-04T23:41:00.205Z,100470.22
2023-02-04T23:44:06.750Z,100474.67
2023-02-04T23:47:12.930Z,100475.91
2023-02-04T23:50:20.138Z,100475.48
2023-02-04T23:53:26.432Z,100478.04
2023-02-04T23:56:31.025Z,100478.52
2023-02-04T23:59:40.938Z,100482.35
